DuBois Regional Airport
KDUJ : now visible

Airfield :











YOU CAN JOIN US ON...

 
LOGIN :

Register | Disclaimer

   EN    FR    IT 

 









Legend :    VFR   Marginal VFR   IFR   Intensive IFR   Very Intensive IFR
Visi :
Ceiling :
>= 8 km
>= 3000ft
5 to 8 km
1000 to 3000 ft
1500m to 5 km
500 to 1000 ft
800 to 1500m
200 to 500 ft
< 800m
< 200 ft
Symbols :   Thunderstorms  Fog  Heavy snow  Heavy precipitations  Wind > 20 kt






- Airport Elevation : 1817 ft
- IATA code : DUJ


KDUJ - DuBois Regional

CURRENT METAR :
  • 021353Z AUTO 22007KT 10SM CLR M07/M13 A3010 RMK AO2 SLP220 T10721128

EXPIRED METARs :
  • 021253Z AUTO 24004KT 10SM CLR M09/M14 A3011 RMK AO2 SLP225 T10891139
  • 021153Z AUTO 22003KT 10SM CLR M11/M14 A3011 RMK AO2 SLP227 T11061139 11072 21106 58008

TAF KDUJ
Valid from the 02 at 12:00 until the 03 at 12:00 UTC


021134Z 0212/0312 22005KT P6SM SCT250
FM021800 24012G20KT P6SM SKC
FM030300 28012G22KT P6SM -SHSN BKN025
TEMPO 0303/0307 2SM -SN OVC012
FM031000 32014G24KT 6SM -SHSN BR OVC035
KZOB FIR / North America



MET'MAP, your aeronautical weather chart ! - Copyright ORBIFLY December 2007 - Disclaimer

ORBIFLY MET'MAP TEAM :

Programming & Development : Alexandra Zaïnal
Original concept : Baudouin d'Aumeries
Technical & hardware support : Manuel Goepfert
Assistance : Marc-Olivier Méhu




SOURCES & CREDITS :

   NOAA       Earth
Advisory